WZZ701 LWSK-LZIB
Flight info
| Callsign | WZZ701 |
|---|---|
| Flight time | 1h 12m |
| Altitude | 36000 |
| Route | RAXAD DCT VAGEN DCT GINAM DCT NEVAK DCT TONDO DCT JOZEP DCT PUCOG DCT BODZA DCT XOMBA |
| Aircraft | A21N/M-SDE2E3FGHIRWXY/LB1 |
Departure
| Time | 2026-05-08 13:39 |
|---|---|
| Airport | Skopje International Airport (LWSK) |
Arrival
| Time | 2026-05-08 14:51 |
|---|---|
| Airport | M. R. Štefánik Airport (LZIB) |
| Time | Latitude | Longitude | Altitude | Speed | Heading |
|---|---|---|---|---|---|
| 2026-05-08 13:14 | 41.96032 | 21.62604 | 789 ft | 0 kts | 75° |
| 2026-05-08 13:30 | 41.96032 | 21.62603 | 789 ft | 0 kts | 75° |
| 2026-05-08 13:30 | 41.96029 | 21.62585 | 788 ft | 2 kts | 94° |
| 2026-05-08 13:31 | 41.96032 | 21.62565 | 788 ft | 2 kts | 112° |
| 2026-05-08 13:31 | 41.96040 | 21.62548 | 788 ft | 2 kts | 133° |
| 2026-05-08 13:31 | 41.96052 | 21.62534 | 788 ft | 2 kts | 152° |
| 2026-05-08 13:31 | 41.96061 | 21.62529 | 788 ft | 0 kts | 164° |
| 2026-05-08 13:32 | 41.96067 | 21.62527 | 788 ft | 0 kts | 166° |
| 2026-05-08 13:34 | 41.96066 | 21.62527 | 788 ft | 0 kts | 166° |
| 2026-05-08 13:34 | 41.96040 | 21.62535 | 788 ft | 8 kts | 174° |
| 2026-05-08 13:35 | 41.95974 | 21.62486 | 786 ft | 15 kts | 182° |
| 2026-05-08 13:35 | 41.95842 | 21.62527 | 784 ft | 22 kts | 165° |
| 2026-05-08 13:35 | 41.95677 | 21.62586 | 782 ft | 26 kts | 165° |
| 2026-05-08 13:35 | 41.95484 | 21.62652 | 780 ft | 30 kts | 166° |
| 2026-05-08 13:36 | 41.95288 | 21.62721 | 778 ft | 29 kts | 165° |
| 2026-05-08 13:36 | 41.95146 | 21.62710 | 778 ft | 15 kts | 242° |
| 2026-05-08 13:36 | 41.95137 | 21.62682 | 778 ft | 0 kts | 251° |
| 2026-05-08 13:37 | 41.95134 | 21.62666 | 777 ft | 5 kts | 254° |
| 2026-05-08 13:37 | 41.95118 | 21.62590 | 775 ft | 11 kts | 255° |
| 2026-05-08 13:37 | 41.95147 | 21.62499 | 774 ft | 11 kts | 341° |
| 2026-05-08 13:38 | 41.95163 | 21.62493 | 774 ft | 0 kts | 345° |
| 2026-05-08 13:38 | 41.95165 | 21.62492 | 774 ft | 2 kts | 345° |
| 2026-05-08 13:38 | 41.95421 | 21.62404 | 774 ft | 79 kts | 346° |
| 2026-05-08 13:38 | 41.96187 | 21.62132 | 780 ft | 147 kts | 346° |
| 2026-05-08 13:39 | 41.97312 | 21.61739 | 1039 ft | 177 kts | 350° |
| 2026-05-08 13:39 | 41.98503 | 21.61316 | 1719 ft | 176 kts | 350° |
| 2026-05-08 13:39 | 41.99687 | 21.60915 | 2388 ft | 179 kts | 351° |
| 2026-05-08 13:39 | 42.00882 | 21.60712 | 2966 ft | 173 kts | 6° |
| 2026-05-08 13:40 | 42.02035 | 21.61121 | 3445 ft | 170 kts | 30° |
| 2026-05-08 13:40 | 42.02962 | 21.62062 | 3899 ft | 168 kts | 51° |
| 2026-05-08 13:40 | 42.03648 | 21.63372 | 4243 ft | 177 kts | 61° |
| 2026-05-08 13:40 | 42.04298 | 21.64850 | 4537 ft | 191 kts | 63° |
| 2026-05-08 13:41 | 42.04986 | 21.66434 | 4824 ft | 205 kts | 62° |
| 2026-05-08 13:41 | 42.05741 | 21.68155 | 5103 ft | 222 kts | 62° |
| 2026-05-08 13:41 | 42.06573 | 21.70039 | 5309 ft | 245 kts | 62° |
| 2026-05-08 13:41 | 42.07478 | 21.72068 | 5701 ft | 262 kts | 62° |
| 2026-05-08 13:42 | 42.08437 | 21.74206 | 6290 ft | 271 kts | 62° |
| 2026-05-08 13:42 | 42.09409 | 21.76363 | 7073 ft | 273 kts | 62° |
| 2026-05-08 13:42 | 42.10395 | 21.78550 | 7813 ft | 277 kts | 62° |
| 2026-05-08 13:42 | 42.11398 | 21.80755 | 8505 ft | 281 kts | 62° |
| 2026-05-08 13:43 | 42.12416 | 21.82998 | 9196 ft | 285 kts | 62° |
| 2026-05-08 13:43 | 42.13453 | 21.85291 | 9866 ft | 288 kts | 62° |
| 2026-05-08 13:43 | 42.14498 | 21.87615 | 10466 ft | 295 kts | 62° |
| 2026-05-08 13:43 | 42.15572 | 21.90015 | 10765 ft | 311 kts | 61° |
| 2026-05-08 13:44 | 42.16724 | 21.92591 | 11067 ft | 327 kts | 61° |
| 2026-05-08 13:44 | 42.17913 | 21.95247 | 11491 ft | 337 kts | 61° |
| 2026-05-08 13:44 | 42.19138 | 21.97989 | 12094 ft | 341 kts | 60° |
| 2026-05-08 13:44 | 42.20349 | 22.00706 | 12713 ft | 345 kts | 60° |
| 2026-05-08 13:45 | 42.21591 | 22.03487 | 13259 ft | 349 kts | 60° |
| 2026-05-08 13:45 | 42.22848 | 22.06303 | 13780 ft | 354 kts | 60° |
| 2026-05-08 13:45 | 42.24118 | 22.09148 | 14304 ft | 358 kts | 60° |
| 2026-05-08 13:45 | 42.25413 | 22.12061 | 14851 ft | 362 kts | 59° |
| 2026-05-08 13:46 | 42.26710 | 22.14984 | 15362 ft | 367 kts | 59° |
| 2026-05-08 13:46 | 42.28025 | 22.17943 | 15873 ft | 370 kts | 59° |
| 2026-05-08 13:46 | 42.29652 | 22.20665 | 16325 ft | 375 kts | 39° |
| 2026-05-08 13:46 | 42.31939 | 22.22369 | 16817 ft | 376 kts | 16° |
| 2026-05-08 13:47 | 42.34521 | 22.22782 | 17300 ft | 376 kts | 353° |
| 2026-05-08 13:47 | 42.37075 | 22.22020 | 17787 ft | 376 kts | 341° |
| 2026-05-08 13:47 | 42.39586 | 22.20988 | 18266 ft | 379 kts | 340° |
| 2026-05-08 13:47 | 42.42141 | 22.19918 | 18735 ft | 382 kts | 341° |
| 2026-05-08 13:48 | 42.44696 | 22.18864 | 19158 ft | 386 kts | 341° |
| 2026-05-08 13:48 | 42.47287 | 22.17822 | 19629 ft | 388 kts | 341° |
| 2026-05-08 13:48 | 42.49894 | 22.16777 | 20108 ft | 390 kts | 342° |
| 2026-05-08 13:48 | 42.52531 | 22.15724 | 20567 ft | 392 kts | 342° |
| 2026-05-08 13:49 | 42.55127 | 22.14692 | 21000 ft | 394 kts | 342° |
| 2026-05-08 13:49 | 42.57791 | 22.13634 | 21424 ft | 396 kts | 342° |
| 2026-05-08 13:49 | 42.60454 | 22.12574 | 21858 ft | 398 kts | 341° |
| 2026-05-08 13:49 | 42.63133 | 22.11507 | 22281 ft | 399 kts | 341° |
| 2026-05-08 13:50 | 42.65812 | 22.10439 | 22703 ft | 400 kts | 341° |
| 2026-05-08 13:50 | 42.68463 | 22.09383 | 23117 ft | 402 kts | 341° |
| 2026-05-08 13:50 | 42.71097 | 22.08101 | 23511 ft | 401 kts | 333° |
| 2026-05-08 13:50 | 42.73551 | 22.06273 | 23889 ft | 400 kts | 324° |
| 2026-05-08 13:51 | 42.75774 | 22.03956 | 24243 ft | 401 kts | 317° |
| 2026-05-08 13:51 | 42.77875 | 22.01479 | 24598 ft | 403 kts | 316° |
| 2026-05-08 13:51 | 42.79985 | 21.98942 | 24935 ft | 406 kts | 316° |
| 2026-05-08 13:51 | 42.82097 | 21.96402 | 25258 ft | 408 kts | 316° |
| 2026-05-08 13:52 | 42.84238 | 21.93833 | 25592 ft | 411 kts | 316° |
| 2026-05-08 13:52 | 42.86400 | 21.91246 | 25928 ft | 413 kts | 316° |
| 2026-05-08 13:52 | 42.88540 | 21.88683 | 26245 ft | 415 kts | 317° |
| 2026-05-08 13:52 | 42.90733 | 21.86061 | 26557 ft | 417 kts | 317° |
| 2026-05-08 13:53 | 42.92932 | 21.83428 | 26858 ft | 419 kts | 317° |
| 2026-05-08 13:53 | 42.95122 | 21.80809 | 27150 ft | 421 kts | 316° |
| 2026-05-08 13:53 | 42.97332 | 21.78165 | 27442 ft | 423 kts | 317° |
| 2026-05-08 13:53 | 42.99553 | 21.75501 | 27726 ft | 425 kts | 316° |
| 2026-05-08 13:54 | 43.01777 | 21.72833 | 28012 ft | 427 kts | 317° |
| 2026-05-08 13:54 | 43.04016 | 21.70141 | 28285 ft | 429 kts | 316° |
| 2026-05-08 13:54 | 43.06260 | 21.67442 | 28564 ft | 431 kts | 316° |
| 2026-05-08 13:54 | 43.08511 | 21.64728 | 28856 ft | 433 kts | 316° |
| 2026-05-08 13:55 | 43.10743 | 21.62039 | 29117 ft | 435 kts | 317° |
| 2026-05-08 13:55 | 43.13021 | 21.59305 | 29382 ft | 437 kts | 317° |
| 2026-05-08 13:55 | 43.17623 | 21.53763 | 29877 ft | 440 kts | 317° |
| 2026-05-08 13:56 | 43.19936 | 21.50962 | 30130 ft | 442 kts | 317° |
| 2026-05-08 13:56 | 43.22221 | 21.48190 | 30385 ft | 444 kts | 316° |
| 2026-05-08 13:56 | 43.24532 | 21.45382 | 30618 ft | 446 kts | 317° |
| 2026-05-08 13:56 | 43.26862 | 21.42550 | 30845 ft | 448 kts | 317° |
| 2026-05-08 13:57 | 43.29245 | 21.39778 | 31081 ft | 450 kts | 320° |
| 2026-05-08 13:57 | 43.31753 | 21.37171 | 31346 ft | 452 kts | 323° |
| 2026-05-08 13:57 | 43.34375 | 21.34751 | 31689 ft | 452 kts | 325° |
| 2026-05-08 13:57 | 43.37039 | 21.32468 | 32066 ft | 450 kts | 326° |
| 2026-05-08 13:58 | 43.39698 | 21.30217 | 32416 ft | 449 kts | 326° |
| 2026-05-08 13:58 | 43.42341 | 21.27986 | 32739 ft | 448 kts | 326° |
| 2026-05-08 13:58 | 43.44992 | 21.25748 | 33049 ft | 448 kts | 326° |
| 2026-05-08 13:58 | 43.47666 | 21.23487 | 33340 ft | 448 kts | 326° |
| 2026-05-08 13:59 | 43.50339 | 21.21223 | 33631 ft | 448 kts | 326° |
| 2026-05-08 13:59 | 43.52984 | 21.18979 | 33929 ft | 447 kts | 326° |
| 2026-05-08 13:59 | 43.55633 | 21.16731 | 34228 ft | 447 kts | 326° |
| 2026-05-08 13:59 | 43.58277 | 21.14487 | 34446 ft | 447 kts | 326° |
| 2026-05-08 14:00 | 43.60902 | 21.12254 | 34641 ft | 448 kts | 326° |
| 2026-05-08 14:00 | 43.63549 | 21.09999 | 34843 ft | 448 kts | 326° |
| 2026-05-08 14:00 | 43.66201 | 21.07738 | 35045 ft | 448 kts | 326° |
| 2026-05-08 14:00 | 43.68864 | 21.05465 | 35247 ft | 448 kts | 326° |
| 2026-05-08 14:01 | 43.71529 | 21.03189 | 35441 ft | 449 kts | 326° |
| 2026-05-08 14:01 | 43.74195 | 21.00909 | 35619 ft | 449 kts | 326° |
| 2026-05-08 14:01 | 43.76857 | 20.98629 | 35792 ft | 450 kts | 325° |
| 2026-05-08 14:01 | 43.79538 | 20.96330 | 35969 ft | 450 kts | 325° |
| 2026-05-08 14:02 | 43.82190 | 20.94056 | 36010 ft | 451 kts | 325° |
| 2026-05-08 14:02 | 43.87533 | 20.89461 | 36024 ft | 452 kts | 325° |
| 2026-05-08 14:03 | 43.92849 | 20.84883 | 36025 ft | 452 kts | 325° |
| 2026-05-08 14:03 | 43.98223 | 20.80245 | 36021 ft | 453 kts | 325° |
| 2026-05-08 14:04 | 44.03548 | 20.75636 | 36014 ft | 453 kts | 325° |
| 2026-05-08 14:04 | 44.08876 | 20.71014 | 36012 ft | 452 kts | 325° |
| 2026-05-08 14:05 | 44.14214 | 20.66386 | 36006 ft | 451 kts | 325° |
| 2026-05-08 14:05 | 44.19574 | 20.61767 | 36006 ft | 453 kts | 327° |
| 2026-05-08 14:06 | 44.25194 | 20.57689 | 36008 ft | 455 kts | 332° |
| 2026-05-08 14:06 | 44.30922 | 20.53938 | 36000 ft | 455 kts | 332° |
| 2026-05-08 14:07 | 44.36650 | 20.50186 | 36002 ft | 455 kts | 332° |
| 2026-05-08 14:07 | 44.42381 | 20.46412 | 35997 ft | 455 kts | 332° |
| 2026-05-08 14:08 | 44.48104 | 20.42629 | 35996 ft | 454 kts | 331° |
| 2026-05-08 14:08 | 44.53818 | 20.38841 | 35995 ft | 454 kts | 332° |
| 2026-05-08 14:09 | 44.59508 | 20.35061 | 35994 ft | 454 kts | 331° |
| 2026-05-08 14:09 | 44.65211 | 20.31239 | 35992 ft | 454 kts | 330° |
| 2026-05-08 14:10 | 44.70893 | 20.27425 | 35994 ft | 454 kts | 330° |
| 2026-05-08 14:10 | 44.76590 | 20.23606 | 35995 ft | 454 kts | 330° |
| 2026-05-08 14:11 | 44.82307 | 20.19771 | 35995 ft | 454 kts | 330° |
| 2026-05-08 14:11 | 44.87997 | 20.15948 | 35994 ft | 454 kts | 330° |
| 2026-05-08 14:12 | 44.93684 | 20.12117 | 35993 ft | 454 kts | 330° |
| 2026-05-08 14:12 | 44.99369 | 20.08279 | 35992 ft | 453 kts | 330° |
| 2026-05-08 14:13 | 45.05026 | 20.04454 | 35992 ft | 452 kts | 330° |
| 2026-05-08 14:13 | 45.10722 | 20.00591 | 35992 ft | 452 kts | 330° |
| 2026-05-08 14:14 | 45.16386 | 19.96766 | 35989 ft | 453 kts | 330° |
| 2026-05-08 14:14 | 45.22050 | 19.92924 | 35984 ft | 453 kts | 330° |
| 2026-05-08 14:15 | 45.27716 | 19.89062 | 35986 ft | 452 kts | 330° |
| 2026-05-08 14:15 | 45.33370 | 19.85193 | 35987 ft | 452 kts | 330° |
| 2026-05-08 14:16 | 45.39048 | 19.81299 | 35994 ft | 452 kts | 330° |
| 2026-05-08 14:16 | 45.44685 | 19.77428 | 35951 ft | 452 kts | 330° |
| 2026-05-08 14:16 | 45.47526 | 19.75472 | 35762 ft | 452 kts | 330° |
| 2026-05-08 14:17 | 45.50327 | 19.73542 | 35575 ft | 452 kts | 330° |
| 2026-05-08 14:17 | 45.53168 | 19.71581 | 35405 ft | 453 kts | 330° |
| 2026-05-08 14:17 | 45.55998 | 19.69626 | 35242 ft | 453 kts | 330° |
| 2026-05-08 14:17 | 45.58830 | 19.67669 | 35055 ft | 453 kts | 330° |
| 2026-05-08 14:18 | 45.61656 | 19.65713 | 34878 ft | 454 kts | 330° |
| 2026-05-08 14:18 | 45.64480 | 19.63757 | 34691 ft | 455 kts | 329° |
| 2026-05-08 14:18 | 45.67357 | 19.61760 | 34511 ft | 456 kts | 329° |
| 2026-05-08 14:18 | 45.70198 | 19.59787 | 34291 ft | 456 kts | 329° |
| 2026-05-08 14:19 | 45.73049 | 19.57803 | 34141 ft | 457 kts | 329° |
| 2026-05-08 14:19 | 45.75897 | 19.55820 | 33943 ft | 457 kts | 330° |
| 2026-05-08 14:19 | 45.78719 | 19.53851 | 33721 ft | 457 kts | 330° |
| 2026-05-08 14:19 | 45.81615 | 19.51829 | 33504 ft | 457 kts | 330° |
| 2026-05-08 14:20 | 45.84475 | 19.49830 | 33294 ft | 457 kts | 330° |
| 2026-05-08 14:20 | 45.87327 | 19.47834 | 33070 ft | 457 kts | 330° |
| 2026-05-08 14:20 | 45.90173 | 19.45839 | 32855 ft | 457 kts | 330° |
| 2026-05-08 14:20 | 45.93030 | 19.43835 | 32637 ft | 457 kts | 330° |
| 2026-05-08 14:21 | 45.95873 | 19.41835 | 32373 ft | 457 kts | 330° |
| 2026-05-08 14:21 | 45.98686 | 19.39857 | 32103 ft | 454 kts | 330° |
| 2026-05-08 14:21 | 46.01500 | 19.37877 | 32024 ft | 452 kts | 330° |
| 2026-05-08 14:22 | 46.07287 | 19.34252 | 32005 ft | 455 kts | 334° |
| 2026-05-08 14:22 | 46.13200 | 19.31103 | 32000 ft | 455 kts | 335° |
| 2026-05-08 14:23 | 46.19160 | 19.27975 | 32001 ft | 455 kts | 335° |
| 2026-05-08 14:23 | 46.25091 | 19.24841 | 32000 ft | 455 kts | 335° |
| 2026-05-08 14:24 | 46.31008 | 19.21697 | 31997 ft | 454 kts | 335° |
| 2026-05-08 14:24 | 46.36940 | 19.18534 | 32002 ft | 455 kts | 335° |
| 2026-05-08 14:25 | 46.42869 | 19.15365 | 31999 ft | 455 kts | 335° |
| 2026-05-08 14:25 | 46.48829 | 19.12175 | 31998 ft | 454 kts | 334° |
| 2026-05-08 14:26 | 46.54810 | 19.08965 | 32000 ft | 455 kts | 334° |
| 2026-05-08 14:26 | 46.60761 | 19.05761 | 32001 ft | 454 kts | 334° |
| 2026-05-08 14:27 | 46.66705 | 19.02552 | 31997 ft | 455 kts | 334° |
| 2026-05-08 14:27 | 46.72610 | 18.99359 | 31246 ft | 456 kts | 334° |
| 2026-05-08 14:27 | 46.75629 | 18.97716 | 30148 ft | 462 kts | 334° |
| 2026-05-08 14:28 | 46.78613 | 18.96098 | 29597 ft | 456 kts | 334° |
| 2026-05-08 14:28 | 46.81567 | 18.94496 | 29101 ft | 450 kts | 334° |
| 2026-05-08 14:28 | 46.84477 | 18.92916 | 28627 ft | 443 kts | 335° |
| 2026-05-08 14:28 | 46.87351 | 18.91356 | 28152 ft | 437 kts | 334° |
| 2026-05-08 14:29 | 46.90198 | 18.89804 | 27681 ft | 432 kts | 335° |
| 2026-05-08 14:29 | 46.92982 | 18.88283 | 27218 ft | 426 kts | 335° |
| 2026-05-08 14:29 | 46.95716 | 18.86787 | 26768 ft | 421 kts | 335° |
| 2026-05-08 14:29 | 46.98452 | 18.85290 | 26314 ft | 416 kts | 335° |
| 2026-05-08 14:30 | 47.01136 | 18.83817 | 25866 ft | 412 kts | 335° |
| 2026-05-08 14:30 | 47.03795 | 18.82358 | 25418 ft | 407 kts | 336° |
| 2026-05-08 14:30 | 47.06432 | 18.80909 | 24982 ft | 403 kts | 336° |
| 2026-05-08 14:30 | 47.09013 | 18.79489 | 24538 ft | 398 kts | 336° |
| 2026-05-08 14:31 | 47.11613 | 18.78061 | 24091 ft | 394 kts | 336° |
| 2026-05-08 14:31 | 47.14179 | 18.76655 | 23655 ft | 390 kts | 336° |
| 2026-05-08 14:31 | 47.16712 | 18.75265 | 23232 ft | 386 kts | 337° |
| 2026-05-08 14:32 | 47.21605 | 18.72330 | 22378 ft | 379 kts | 333° |
| 2026-05-08 14:32 | 47.24024 | 18.70752 | 21940 ft | 376 kts | 333° |
| 2026-05-08 14:32 | 47.26387 | 18.69198 | 21511 ft | 373 kts | 333° |
| 2026-05-08 14:32 | 47.28755 | 18.67641 | 21086 ft | 370 kts | 333° |
| 2026-05-08 14:33 | 47.31092 | 18.66102 | 20664 ft | 367 kts | 333° |
| 2026-05-08 14:33 | 47.33406 | 18.64581 | 20245 ft | 364 kts | 333° |
| 2026-05-08 14:33 | 47.35717 | 18.63061 | 19824 ft | 362 kts | 333° |
| 2026-05-08 14:33 | 47.38007 | 18.61555 | 19405 ft | 359 kts | 334° |
| 2026-05-08 14:34 | 47.40253 | 18.59970 | 18981 ft | 356 kts | 330° |
| 2026-05-08 14:34 | 47.42379 | 18.58150 | 18561 ft | 353 kts | 325° |
| 2026-05-08 14:34 | 47.44399 | 18.56074 | 18137 ft | 350 kts | 321° |
| 2026-05-08 14:34 | 47.46326 | 18.53915 | 17716 ft | 348 kts | 321° |
| 2026-05-08 14:35 | 47.48242 | 18.51738 | 17308 ft | 353 kts | 321° |
| 2026-05-08 14:35 | 47.50189 | 18.49526 | 16933 ft | 355 kts | 321° |
| 2026-05-08 14:35 | 47.52133 | 18.47329 | 16553 ft | 353 kts | 321° |
| 2026-05-08 14:35 | 47.54069 | 18.45124 | 16169 ft | 351 kts | 319° |
| 2026-05-08 14:36 | 47.55882 | 18.42740 | 15794 ft | 348 kts | 314° |
| 2026-05-08 14:36 | 47.57510 | 18.40134 | 15417 ft | 345 kts | 309° |
| 2026-05-08 14:36 | 47.59019 | 18.37386 | 15046 ft | 343 kts | 307° |
| 2026-05-08 14:36 | 47.60496 | 18.34629 | 14671 ft | 342 kts | 306° |
| 2026-05-08 14:37 | 47.61962 | 18.31871 | 14295 ft | 340 kts | 306° |
| 2026-05-08 14:37 | 47.63424 | 18.29120 | 13915 ft | 339 kts | 306° |
| 2026-05-08 14:37 | 47.64882 | 18.26387 | 13541 ft | 337 kts | 306° |
| 2026-05-08 14:37 | 47.66334 | 18.23669 | 13169 ft | 334 kts | 307° |
| 2026-05-08 14:38 | 47.67772 | 18.20978 | 12796 ft | 332 kts | 307° |
| 2026-05-08 14:38 | 47.69200 | 18.18304 | 12420 ft | 330 kts | 307° |
| 2026-05-08 14:38 | 47.70620 | 18.15644 | 12053 ft | 328 kts | 307° |
| 2026-05-08 14:38 | 47.72041 | 18.12981 | 11676 ft | 326 kts | 307° |
| 2026-05-08 14:39 | 47.73427 | 18.10384 | 11308 ft | 323 kts | 307° |
| 2026-05-08 14:39 | 47.74796 | 18.07757 | 10938 ft | 320 kts | 305° |
| 2026-05-08 14:39 | 47.76014 | 18.05011 | 10567 ft | 316 kts | 300° |
| 2026-05-08 14:39 | 47.77058 | 18.02169 | 10195 ft | 311 kts | 297° |
| 2026-05-08 14:40 | 47.78038 | 17.99333 | 9818 ft | 307 kts | 297° |
| 2026-05-08 14:40 | 47.78987 | 17.96561 | 9473 ft | 303 kts | 297° |
| 2026-05-08 14:40 | 47.79937 | 17.93782 | 9151 ft | 297 kts | 297° |
| 2026-05-08 14:40 | 47.80865 | 17.91071 | 8829 ft | 292 kts | 297° |
| 2026-05-08 14:41 | 47.81775 | 17.88411 | 8529 ft | 286 kts | 297° |
| 2026-05-08 14:41 | 47.82671 | 17.85791 | 8253 ft | 280 kts | 297° |
| 2026-05-08 14:41 | 47.83535 | 17.83265 | 7983 ft | 274 kts | 297° |
| 2026-05-08 14:41 | 47.84386 | 17.80771 | 7714 ft | 270 kts | 297° |
| 2026-05-08 14:42 | 47.85237 | 17.78280 | 7442 ft | 270 kts | 297° |
| 2026-05-08 14:42 | 47.86084 | 17.75794 | 7115 ft | 270 kts | 297° |
| 2026-05-08 14:42 | 47.86929 | 17.73311 | 6745 ft | 269 kts | 297° |
| 2026-05-08 14:42 | 47.87766 | 17.70851 | 6374 ft | 267 kts | 298° |
| 2026-05-08 14:43 | 47.88601 | 17.68393 | 6005 ft | 266 kts | 298° |
| 2026-05-08 14:43 | 47.89431 | 17.65952 | 5639 ft | 264 kts | 298° |
| 2026-05-08 14:43 | 47.90266 | 17.63497 | 5268 ft | 263 kts | 298° |
| 2026-05-08 14:43 | 47.91184 | 17.61184 | 4902 ft | 261 kts | 308° |
| 2026-05-08 14:44 | 47.92384 | 17.59142 | 4539 ft | 260 kts | 315° |
| 2026-05-08 14:44 | 47.93638 | 17.57229 | 4174 ft | 259 kts | 315° |
| 2026-05-08 14:44 | 47.94897 | 17.55329 | 3808 ft | 258 kts | 315° |
| 2026-05-08 14:44 | 47.96150 | 17.53428 | 3444 ft | 257 kts | 316° |
| 2026-05-08 14:45 | 47.97412 | 17.51575 | 3187 ft | 251 kts | 317° |
| 2026-05-08 14:45 | 47.98639 | 17.49796 | 3059 ft | 240 kts | 317° |
| 2026-05-08 14:45 | 47.99794 | 17.48070 | 2966 ft | 229 kts | 316° |
| 2026-05-08 14:45 | 48.00869 | 17.46418 | 2946 ft | 214 kts | 315° |
| 2026-05-08 14:46 | 48.01846 | 17.44894 | 3001 ft | 194 kts | 315° |
| 2026-05-08 14:46 | 48.02743 | 17.43487 | 2995 ft | 184 kts | 315° |
| 2026-05-08 14:46 | 48.03620 | 17.42113 | 2974 ft | 183 kts | 315° |
| 2026-05-08 14:46 | 48.04501 | 17.40733 | 2965 ft | 184 kts | 315° |
| 2026-05-08 14:47 | 48.05385 | 17.39350 | 2964 ft | 184 kts | 315° |
| 2026-05-08 14:47 | 48.06267 | 17.37972 | 2954 ft | 183 kts | 315° |
| 2026-05-08 14:47 | 48.07151 | 17.36592 | 2790 ft | 183 kts | 316° |
| 2026-05-08 14:47 | 48.08030 | 17.35222 | 2592 ft | 183 kts | 316° |
| 2026-05-08 14:48 | 48.08890 | 17.33876 | 2340 ft | 175 kts | 315° |
| 2026-05-08 14:48 | 48.09701 | 17.32604 | 2101 ft | 164 kts | 315° |
| 2026-05-08 14:48 | 48.10447 | 17.31447 | 1862 ft | 148 kts | 314° |
| 2026-05-08 14:48 | 48.11160 | 17.30355 | 1676 ft | 146 kts | 315° |
| 2026-05-08 14:49 | 48.11860 | 17.29275 | 1495 ft | 145 kts | 314° |
| 2026-05-08 14:49 | 48.12561 | 17.28186 | 1312 ft | 145 kts | 313° |
| 2026-05-08 14:49 | 48.13256 | 17.27101 | 1127 ft | 144 kts | 314° |
| 2026-05-08 14:49 | 48.13959 | 17.26009 | 941 ft | 144 kts | 313° |
| 2026-05-08 14:50 | 48.14645 | 17.24941 | 760 ft | 144 kts | 313° |
| 2026-05-08 14:50 | 48.15340 | 17.23860 | 575 ft | 143 kts | 313° |
| 2026-05-08 14:50 | 48.16032 | 17.22780 | 439 ft | 140 kts | 313° |
| 2026-05-08 14:50 | 48.16622 | 17.21857 | 431 ft | 101 kts | 314° |
| 2026-05-08 14:51 | 48.16993 | 17.21284 | 428 ft | 51 kts | 316° |
| 2026-05-08 14:51 | 48.17126 | 17.21021 | 428 ft | 17 kts | 235° |
| 2026-05-08 14:51 | 48.17080 | 17.20960 | 428 ft | 8 kts | 228° |
| 2026-05-08 14:51 | 48.17039 | 17.20879 | 428 ft | 12 kts | 226° |
| 2026-05-08 14:52 | 48.16962 | 17.20757 | 430 ft | 18 kts | 226° |
| 2026-05-08 14:52 | 48.16742 | 17.20419 | 431 ft | 20 kts | 226° |
| 2026-05-08 14:52 | 48.16792 | 17.20242 | 433 ft | 22 kts | 315° |
| 2026-05-08 14:53 | 48.16875 | 17.20162 | 435 ft | 11 kts | 37° |
| 2026-05-08 14:53 | 48.16949 | 17.20260 | 433 ft | 17 kts | 43° |
| 2026-05-08 14:53 | 48.17014 | 17.20296 | 435 ft | 9 kts | 326° |
| 2026-05-08 14:53 | 48.17034 | 17.20270 | 435 ft | 0 kts | 315° |